Terminal Aerodrome Forecast
Issued by NWS

Home | Current Version | Previous Version | Text Only | Print | Product List | Glossary Off
Versions: 1 2 3 4 5 6 7 8 9 10 11 12 13 14 15

000
FTUS45 KGGW 152300
TAFSDY
TAF
KSDY 152331Z 1600/1624 09010KT P6SM BKN070
     FM160300 36018KT P6SM OVC050
     FM160900 01013KT P6SM BKN025
     FM162000 07010KT P6SM BKN035
      AMD LTD TO CLD VIS AND WIND=

USA.gov is the U.S. government's official web portal to all federal, state and local government web resources and services.